Radar AviationWeather DUATS TFRs Wunderground Accuweather Weather.com

alt : Radar

TAFs

KDTW 180302Z 1803/1906 21007KT P6SM SCT250
   FM181600 21013G20KT P6SM SKC
   FM182200 18013KT P6SM SCT250
KCLE 172340Z 1800/1906 20007KT P6SM SCT250
   FM181600 20012G20KT P6SM SKC
   FM182300 20009KT P6SM SKC
KTOL 172340Z 1800/1824 22005KT P6SM SCT250
   FM181600 22012G20KT P6SM SKC
   FM182300 20007KT P6SM SKC
KFDY 172340Z 1800/1824 22008KT P6SM SCT250
   FM181600 20012G20KT P6SM SKC
   FM182300 20008KT P6SM SKC
KJXN 172330Z 1800/1824 22007KT P6SM SCT250
   FM181500 21013G23KT P6SM SCT250
   FM182300 19012KT P6SM SCT250
KFWA 172320Z 1800/1824 21006KT P6SM SCT250
   FM181600 20012G20KT P6SM SKC

METARs

KDUH 180314Z AUTO 23003KT 10SM CLR 14/05 A3022 RMK AO2 T01410045
KJXN 180256Z AUTO 20012KT 10SM CLR 13/04 A3019 RMK AO2 SLP226 T01330044 51011
KFWA 180254Z 21003KT 10SM CLR 11/04 A3025 RMK AO2 SLP243 T01110039 53013
KDTW 180253Z 20008KT 10SM BKN250 12/06 A3021 RMK AO2 SLP229 T01220056 51012
KFDY 180253Z AUTO 19007KT 10SM CLR 09/03 A3024 RMK AO2 SLP238 T00890033 53012 TSNO
KTDZ 180253Z AUTO 21003KT 10SM CLR 12/05 A3024 RMK AO2 SLP239 T01170050 51014
KTOL 180252Z 22003KT 10SM CLR 13/06 A3023 RMK AO2 SLP235 T01280056 51015 $
KCLE 180251Z 20008KT 10SM FEW250 13/04 A3026 RMK AO2 SLP248 T01280039 52013

alt : Satellite

alt : TFRs